Albany, California
Current Conditions -  °F | °C
As of 1:53 PM on Saturday 25 Oct 2014 (Local Time) from KOAK Reporting Station
Broken Clouds Broken Clouds  
Wind Chill: 21°   Ceiling: 4000
Heat Index: 21°   Visibility: 10mi
Dew Point: 13°   Wind: 17mph
Humidity: 63%   Direction: 230°SW
Pressure: 30.07"   Gusts: NA
Location:  37.89°N, 122.29°W
Report Text: KOAK 252053Z 23015KT 10SM SCT025 BKN040 21/13 A3007 RMK AO2 SLP180 T02060133 50003
Loading
Personal Weather Stations






























Interactive Weather Map
Tropical Storm Tracking
New forecast layout! Learn more

10-Day Weather Forecast

Advertisements
Track Severe Weather on mobile